createdAt,value
2019-04-26T00:00:45.265Z,22.10
2019-04-26T00:01:53.846Z,22.10
2019-04-26T00:03:00.206Z,22.10
2019-04-26T00:04:02.989Z,22.00
2019-04-26T00:05:05.981Z,22.00
2019-04-26T00:06:10.237Z,22.00
2019-04-26T00:07:12.944Z,22.00
2019-04-26T00:08:15.877Z,22.00
2019-04-26T00:09:35.833Z,22.00
2019-04-26T00:10:58.100Z,22.00
2019-04-26T00:12:18.585Z,22.00
2019-04-26T00:15:18.724Z,21.90
2019-04-26T00:16:44.805Z,21.90
2019-04-26T00:17:53.677Z,21.90
2019-04-26T00:18:56.357Z,21.90
2019-04-26T00:19:59.006Z,21.90
2019-04-26T00:21:01.685Z,21.90
2019-04-26T00:22:04.406Z,21.90
2019-04-26T00:23:07.370Z,21.90
2019-04-26T00:24:11.645Z,21.90
2019-04-26T00:25:14.576Z,21.90
2019-04-26T00:26:17.670Z,21.90
2019-04-26T00:27:21.249Z,21.90
2019-04-26T00:28:24.074Z,21.90
2019-04-26T00:29:26.732Z,21.90
2019-04-26T00:30:29.396Z,22.00
2019-04-26T00:31:32.300Z,21.90
2019-04-26T00:32:35.074Z,21.90
2019-04-26T00:33:37.766Z,21.90
2019-04-26T00:34:40.494Z,21.90
2019-04-26T00:35:47.682Z,21.90
2019-04-26T00:36:47.693Z,21.90
2019-04-26T00:37:50.352Z,21.90
2019-04-26T00:38:53.018Z,21.90
2019-04-26T00:39:55.713Z,21.90
2019-04-26T00:40:58.720Z,21.90
2019-04-26T00:42:01.714Z,21.80
2019-04-26T00:43:04.537Z,21.80
2019-04-26T00:44:07.784Z,21.80
2019-04-26T00:45:10.496Z,21.80
2019-04-26T00:46:14.657Z,21.70
2019-04-26T00:47:19.064Z,21.80
2019-04-26T00:48:27.137Z,21.80
2019-04-26T00:49:43.066Z,21.80
2019-04-26T00:50:35.989Z,21.80
2019-04-26T00:51:39.330Z,21.80
2019-04-26T00:52:45.125Z,21.80
2019-04-26T00:53:49.304Z,21.70
2019-04-26T00:54:52.097Z,21.70
2019-04-26T00:55:56.102Z,21.70
2019-04-26T00:57:00.303Z,21.70
2019-04-26T00:58:04.100Z,21.70
2019-04-26T00:59:08.689Z,21.70
2019-04-26T01:00:13.463Z,21.70
2019-04-26T01:01:17.090Z,21.70
2019-04-26T01:02:34.078Z,21.70
2019-04-26T01:03:37.040Z,21.60
2019-04-26T01:04:39.658Z,21.60
2019-04-26T01:05:42.394Z,21.60
2019-04-26T01:06:46.886Z,21.60
2019-04-26T01:07:51.645Z,21.60
2019-04-26T01:08:54.309Z,21.50
2019-04-26T01:09:56.975Z,21.50
2019-04-26T01:10:59.883Z,21.50
2019-04-26T01:12:02.833Z,21.50
2019-04-26T01:13:05.551Z,21.40
2019-04-26T01:14:08.249Z,21.40
2019-04-26T01:15:11.103Z,21.40
2019-04-26T01:16:13.760Z,21.40
2019-04-26T01:17:17.589Z,21.40
2019-04-26T01:18:20.922Z,21.40
2019-04-26T01:19:24.558Z,21.40
2019-04-26T01:20:29.093Z,21.40
2019-04-26T01:21:39.074Z,21.40
2019-04-26T01:22:46.673Z,21.50
2019-04-26T01:23:52.901Z,21.50
2019-04-26T01:24:56.513Z,21.40
2019-04-26T01:26:07.808Z,21.40
2019-04-26T01:27:13.648Z,21.40
2019-04-26T01:28:22.037Z,21.40
2019-04-26T01:29:25.954Z,21.40
2019-04-26T01:30:31.648Z,21.40
2019-04-26T01:31:39.253Z,21.40
2019-04-26T01:32:45.592Z,21.40
2019-04-26T01:36:33.385Z,21.30
2019-04-26T01:37:38.821Z,21.30
2019-04-26T01:38:44.097Z,21.20
2019-04-26T01:39:52.595Z,21.20
2019-04-26T01:40:58.734Z,21.20
2019-04-26T01:42:20.969Z,21.20
2019-04-26T01:43:45.054Z,21.20
2019-04-26T01:44:55.639Z,21.10
2019-04-26T01:46:07.109Z,21.10
2019-04-26T01:47:09.753Z,21.10
2019-04-26T01:48:41.808Z,21.10
2019-04-26T01:49:45.351Z,21.10
2019-04-26T01:50:48.317Z,21.10
2019-04-26T01:51:56.591Z,21.10
2019-04-26T01:53:00.545Z,21.10
2019-04-26T01:54:03.409Z,21.00
2019-04-26T01:55:06.626Z,21.10
2019-04-26T01:56:09.429Z,21.10
2019-04-26T01:57:13.389Z,21.10
2019-04-26T01:58:16.482Z,21.10
2019-04-26T01:59:20.995Z,21.10
2019-04-26T02:00:53.100Z,21.10
2019-04-26T02:02:18.173Z,21.10
2019-04-26T02:03:25.590Z,21.10
2019-04-26T02:04:30.354Z,21.10
2019-04-26T02:05:33.041Z,21.00
2019-04-26T02:06:35.741Z,21.10
2019-04-26T02:07:38.924Z,21.10
2019-04-26T02:08:41.579Z,21.10
2019-04-26T02:09:44.208Z,21.10
2019-04-26T02:10:46.881Z,21.10
2019-04-26T02:11:49.660Z,21.10
2019-04-26T02:12:54.086Z,21.10
2019-04-26T02:13:57.004Z,21.10
2019-04-26T02:15:00.047Z,21.10
2019-04-26T02:16:02.750Z,21.10
2019-04-26T02:17:05.469Z,21.10
2019-04-26T02:18:08.157Z,21.10
2019-04-26T02:19:10.861Z,21.10
2019-04-26T02:20:34.862Z,21.10
2019-04-26T02:21:44.038Z,21.10
2019-04-26T02:22:59.822Z,21.10
2019-04-26T02:24:28.000Z,21.00
2019-04-26T02:25:32.174Z,21.00
2019-04-26T02:26:40.621Z,21.00
2019-04-26T02:27:43.393Z,21.00
2019-04-26T02:28:46.345Z,21.00
2019-04-26T02:29:49.088Z,21.00
2019-04-26T02:30:52.366Z,21.00
2019-04-26T02:31:59.673Z,21.00
2019-04-26T02:33:02.860Z,21.00
2019-04-26T02:34:06.325Z,21.00
2019-04-26T02:35:09.807Z,21.00
2019-04-26T02:36:12.770Z,21.00
2019-04-26T02:37:15.806Z,21.00
2019-04-26T02:38:18.854Z,21.00
2019-04-26T02:39:27.675Z,21.00
2019-04-26T02:40:31.855Z,21.00
2019-04-26T02:41:37.112Z,21.00
2019-04-26T02:42:42.458Z,21.00
2019-04-26T02:43:48.701Z,21.00
2019-04-26T02:45:18.111Z,21.00
2019-04-26T02:46:31.316Z,21.00
2019-04-26T02:47:52.673Z,21.00
2019-04-26T02:49:20.689Z,21.00
2019-04-26T02:50:43.893Z,21.00
2019-04-26T02:52:10.498Z,20.90
2019-04-26T02:53:34.854Z,20.90
2019-04-26T02:54:47.368Z,20.90
2019-04-26T02:56:43.665Z,20.90
2019-04-26T02:57:51.062Z,20.90
2019-04-26T02:59:26.359Z,20.90
2019-04-26T03:00:30.156Z,20.90
2019-04-26T03:01:34.473Z,20.90
2019-04-26T03:02:40.237Z,20.80
2019-04-26T03:03:42.462Z,20.90
2019-04-26T03:04:48.098Z,20.90
2019-04-26T03:05:53.093Z,20.80
2019-04-26T03:07:03.379Z,20.80
2019-04-26T03:08:19.400Z,20.80
2019-04-26T03:09:22.287Z,20.80
2019-04-26T03:10:35.969Z,20.70
2019-04-26T03:11:43.196Z,20.70
2019-04-26T03:12:49.324Z,20.70
2019-04-26T03:14:20.926Z,20.60
2019-04-26T03:15:57.110Z,20.60
2019-04-26T03:17:21.840Z,20.50
2019-04-26T03:18:47.040Z,20.50
2019-04-26T03:19:58.409Z,20.50
2019-04-26T03:21:06.298Z,20.50
2019-04-26T03:22:22.446Z,20.60
2019-04-26T03:23:58.311Z,20.60
2019-04-26T03:25:18.982Z,20.60
2019-04-26T03:26:37.431Z,20.50
2019-04-26T03:27:56.293Z,20.50
2019-04-26T03:29:39.630Z,20.50
2019-04-26T03:31:12.852Z,20.50
2019-04-26T03:32:50.431Z,20.40
2019-04-26T03:34:13.301Z,20.40
2019-04-26T03:35:49.281Z,20.30
2019-04-26T03:37:36.529Z,20.30
2019-04-26T03:38:49.461Z,20.30
2019-04-26T03:40:05.699Z,20.20
2019-04-26T03:41:26.194Z,20.30
2019-04-26T03:42:53.790Z,20.30
2019-04-26T03:44:21.976Z,20.30
2019-04-26T03:46:10.886Z,20.30
2019-04-26T03:47:19.129Z,20.30
2019-04-26T03:48:35.905Z,20.20
2019-04-26T03:50:15.179Z,20.30
2019-04-26T03:51:31.593Z,20.30
2019-04-26T03:53:02.491Z,20.30
2019-04-26T03:54:12.598Z,20.30
2019-04-26T03:56:11.115Z,20.20
2019-04-26T03:57:37.101Z,20.30
2019-04-26T03:59:03.569Z,20.20
2019-04-26T04:00:26.781Z,20.20
2019-04-26T04:01:37.393Z,20.20
2019-04-26T04:03:51.870Z,20.20
2019-04-26T04:05:09.729Z,20.20
2019-04-26T04:06:17.517Z,20.20
2019-04-26T04:07:36.095Z,20.20
2019-04-26T04:08:37.595Z,20.20
2019-04-26T04:09:46.702Z,20.30
2019-04-26T04:10:56.838Z,20.30
2019-04-26T04:12:12.501Z,20.30
2019-04-26T04:13:55.204Z,20.30
2019-04-26T04:15:08.394Z,20.30
2019-04-26T04:16:41.399Z,20.20
2019-04-26T04:17:51.908Z,20.20
2019-04-26T04:19:03.601Z,20.20
2019-04-26T04:20:27.673Z,20.20
2019-04-26T04:22:05.865Z,20.20
2019-04-26T04:23:24.331Z,20.20
2019-04-26T04:24:51.816Z,20.20
2019-04-26T04:25:57.683Z,20.10
2019-04-26T04:27:08.012Z,20.10
2019-04-26T04:28:40.503Z,20.10
2019-04-26T04:29:56.304Z,20.10
2019-04-26T04:31:24.250Z,20.10
2019-04-26T04:33:25.686Z,20.00
2019-04-26T04:34:52.688Z,19.90
2019-04-26T04:36:01.451Z,19.80
2019-04-26T04:37:07.621Z,19.80
2019-04-26T04:38:33.445Z,19.80
2019-04-26T04:40:06.877Z,19.80
2019-04-26T04:41:27.705Z,19.70
2019-04-26T04:43:02.669Z,19.70
2019-04-26T04:44:27.557Z,19.70
2019-04-26T04:46:10.833Z,19.70
2019-04-26T04:47:42.661Z,19.70
2019-04-26T04:49:21.276Z,19.70
2019-04-26T04:50:49.261Z,19.70
2019-04-26T04:52:50.111Z,19.70
2019-04-26T04:54:26.110Z,19.70
2019-04-26T04:55:50.063Z,19.60
2019-04-26T04:57:08.433Z,19.60
2019-04-26T04:58:15.943Z,19.60
2019-04-26T04:59:26.543Z,19.60
2019-04-26T05:01:02.977Z,19.70
2019-04-26T05:02:54.021Z,19.70
2019-04-26T05:04:10.865Z,19.70
2019-04-26T05:05:37.000Z,19.70
2019-04-26T05:07:10.524Z,19.70
2019-04-26T05:08:37.633Z,19.80
2019-04-26T05:09:52.262Z,19.80
2019-04-26T05:11:10.457Z,19.90
2019-04-26T05:12:29.591Z,19.90
2019-04-26T05:13:41.086Z,19.90
2019-04-26T05:15:35.657Z,20.00
2019-04-26T05:17:08.968Z,20.00
2019-04-26T05:18:42.297Z,19.90
2019-04-26T05:20:28.907Z,19.90
2019-04-26T05:21:53.000Z,19.90
2019-04-26T05:23:53.189Z,19.90
2019-04-26T05:25:49.315Z,20.00
2019-04-26T05:27:36.536Z,20.00
2019-04-26T05:28:53.800Z,20.00
2019-04-26T05:30:38.910Z,20.00
2019-04-26T05:31:54.316Z,20.00
2019-04-26T05:34:05.878Z,19.90
2019-04-26T05:35:38.969Z,19.90
2019-04-26T05:37:07.669Z,20.00
2019-04-26T05:38:42.658Z,20.00
2019-04-26T05:40:05.022Z,20.10
2019-04-26T05:41:45.208Z,20.10
2019-04-26T05:43:24.330Z,20.10
2019-04-26T05:45:07.114Z,20.10
2019-04-26T05:46:43.129Z,20.10
2019-04-26T05:48:11.635Z,20.10
2019-04-26T05:50:07.699Z,20.20
2019-04-26T05:51:46.089Z,20.20
2019-04-26T05:53:22.983Z,20.20
2019-04-26T05:55:06.953Z,20.20
2019-04-26T05:56:45.565Z,20.30
2019-04-26T05:58:20.309Z,20.30
2019-04-26T06:00:31.609Z,20.30
2019-04-26T06:02:20.753Z,20.30
2019-04-26T06:04:13.317Z,20.30
2019-04-26T06:05:45.978Z,20.30
2019-04-26T06:07:06.736Z,20.40
2019-04-26T06:08:39.960Z,20.40
2019-04-26T06:10:37.793Z,20.40
2019-04-26T06:11:51.427Z,20.50
2019-04-26T06:13:11.717Z,20.50
2019-04-26T06:14:48.809Z,20.50
2019-04-26T06:16:11.753Z,20.50
2019-04-26T06:17:55.250Z,20.60
2019-04-26T06:19:14.270Z,20.60
2019-04-26T06:20:28.865Z,20.60
2019-04-26T06:22:00.108Z,20.60
2019-04-26T06:23:44.592Z,20.60
2019-04-26T06:25:25.514Z,20.60
2019-04-26T06:27:22.312Z,20.60
2019-04-26T06:29:06.546Z,20.60
2019-04-26T06:30:23.984Z,20.60
2019-04-26T06:31:42.153Z,20.60
2019-04-26T06:33:20.798Z,20.60
2019-04-26T06:34:51.724Z,20.70
2019-04-26T06:35:59.243Z,20.70
2019-04-26T06:37:31.318Z,20.80
2019-04-26T06:39:42.282Z,20.80
2019-04-26T06:41:02.435Z,20.90
2019-04-26T06:42:50.130Z,20.90
2019-04-26T06:44:02.901Z,20.90
2019-04-26T06:46:14.502Z,20.90
2019-04-26T06:47:29.721Z,20.90
2019-04-26T06:48:53.377Z,20.90
2019-04-26T06:50:15.296Z,20.90
2019-04-26T06:51:24.990Z,20.90
2019-04-26T06:52:31.373Z,21.00
2019-04-26T06:54:09.380Z,21.00
2019-04-26T06:55:22.758Z,21.00
2019-04-26T06:56:46.901Z,21.10
2019-04-26T06:58:52.551Z,21.10
2019-04-26T07:00:20.967Z,21.10
2019-04-26T07:02:00.798Z,21.20
2019-04-26T07:03:31.859Z,21.20
2019-04-26T07:05:08.026Z,21.30
2019-04-26T07:06:12.258Z,21.30
2019-04-26T07:07:50.209Z,21.30
2019-04-26T07:09:05.817Z,21.30
2019-04-26T07:10:32.666Z,21.40
2019-04-26T07:12:56.326Z,21.40
2019-04-26T07:14:35.956Z,21.40
2019-04-26T07:15:49.164Z,21.40
2019-04-26T07:17:08.933Z,21.40
2019-04-26T07:18:29.279Z,21.40
2019-04-26T07:20:16.314Z,21.40
2019-04-26T07:22:19.041Z,21.50
2019-04-26T07:24:18.127Z,21.50
2019-04-26T07:26:09.129Z,21.40
2019-04-26T07:27:20.560Z,21.40
2019-04-26T07:28:49.933Z,21.40
2019-04-26T07:30:36.736Z,21.50
2019-04-26T07:31:52.214Z,21.50
2019-04-26T07:33:20.825Z,21.60
2019-04-26T07:35:06.722Z,21.60
2019-04-26T07:37:04.574Z,21.70
2019-04-26T07:38:53.780Z,21.70
2019-04-26T07:40:51.835Z,21.70
2019-04-26T07:42:25.573Z,21.80
2019-04-26T07:44:23.601Z,21.80
2019-04-26T07:46:13.822Z,21.80
2019-04-26T07:48:18.364Z,21.80
2019-04-26T07:50:14.058Z,21.90
2019-04-26T07:51:56.378Z,21.90
2019-04-26T07:53:29.529Z,21.90
2019-04-26T07:55:26.243Z,22.00
2019-04-26T07:56:41.571Z,22.00
2019-04-26T07:58:23.053Z,22.10
2019-04-26T08:00:02.771Z,22.10
2019-04-26T08:01:54.936Z,22.20
2019-04-26T08:03:30.776Z,22.20
2019-04-26T08:04:40.190Z,22.20
2019-04-26T08:05:55.221Z,22.20
2019-04-26T08:07:06.295Z,22.30
2019-04-26T08:08:12.865Z,22.30
2019-04-26T08:09:26.838Z,22.30
2019-04-26T08:10:23.671Z,22.40
2019-04-26T08:11:35.965Z,22.40
2019-04-26T08:12:41.618Z,22.40
2019-04-26T08:14:19.195Z,22.40
2019-04-26T08:15:41.159Z,22.40
2019-04-26T08:17:32.538Z,22.50
2019-04-26T08:18:42.245Z,22.50
2019-04-26T08:19:57.771Z,22.50
2019-04-26T08:21:20.017Z,22.50
2019-04-26T08:22:28.413Z,22.60
2019-04-26T08:23:41.915Z,22.60
2019-04-26T08:24:43.206Z,22.60
2019-04-26T08:25:48.798Z,22.70
2019-04-26T08:27:23.134Z,22.70
2019-04-26T08:28:25.147Z,22.80
2019-04-26T08:29:33.392Z,22.80
2019-04-26T08:30:44.895Z,22.80
2019-04-26T08:31:48.637Z,22.90
2019-04-26T08:32:54.830Z,22.90
2019-04-26T08:34:03.664Z,22.90
2019-04-26T08:35:24.352Z,23.00
2019-04-26T08:36:31.809Z,23.00
2019-04-26T08:37:50.325Z,23.00
2019-04-26T08:38:54.041Z,23.10
2019-04-26T08:39:57.581Z,23.10
2019-04-26T08:41:04.803Z,23.10
2019-04-26T08:42:09.099Z,23.20
2019-04-26T08:43:30.769Z,23.20
2019-04-26T08:44:51.151Z,23.20
2019-04-26T08:46:14.637Z,23.30
2019-04-26T08:47:32.898Z,23.30
2019-04-26T08:48:44.450Z,23.30
2019-04-26T08:49:55.037Z,23.40
2019-04-26T08:51:00.421Z,23.40
2019-04-26T08:52:14.204Z,23.40
2019-04-26T08:53:11.004Z,23.50
2019-04-26T08:54:21.704Z,23.50
2019-04-26T08:55:26.102Z,23.50
2019-04-26T08:56:34.216Z,23.60
2019-04-26T08:57:40.013Z,23.60
2019-04-26T08:58:46.394Z,23.60
2019-04-26T08:59:54.139Z,23.70
2019-04-26T09:01:19.665Z,23.80
2019-04-26T09:02:43.956Z,23.80
2019-04-26T09:03:55.883Z,23.80
2019-04-26T09:05:26.670Z,23.90
2019-04-26T09:06:58.778Z,23.90
2019-04-26T09:08:04.007Z,23.90
2019-04-26T09:09:14.351Z,24.00
2019-04-26T09:10:21.029Z,24.00
2019-04-26T09:11:30.203Z,24.10
2019-04-26T09:12:32.822Z,24.10
2019-04-26T09:13:39.776Z,24.10
2019-04-26T09:14:47.541Z,24.20
2019-04-26T09:16:08.574Z,24.20
2019-04-26T09:17:11.473Z,24.30
2019-04-26T09:18:14.174Z,24.30
2019-04-26T09:19:16.881Z,24.40
2019-04-26T09:20:28.480Z,24.40
2019-04-26T09:21:47.485Z,24.50
2019-04-26T09:23:22.934Z,24.50
2019-04-26T09:24:33.446Z,24.50
2019-04-26T09:25:43.477Z,24.60
2019-04-26T09:27:05.587Z,24.60
2019-04-26T09:28:30.477Z,24.60
2019-04-26T09:29:46.429Z,24.70
2019-04-26T09:31:15.382Z,24.70
2019-04-26T09:32:31.264Z,24.80
2019-04-26T09:33:41.311Z,24.80
2019-04-26T09:34:44.027Z,24.80
2019-04-26T09:35:46.771Z,24.80
2019-04-26T09:36:49.521Z,24.90
2019-04-26T09:37:52.578Z,24.90
2019-04-26T09:38:55.223Z,25.00
2019-04-26T09:40:09.577Z,25.00
2019-04-26T09:41:02.434Z,25.00
2019-04-26T09:42:14.418Z,25.10
2019-04-26T09:43:32.961Z,25.10
2019-04-26T09:44:49.579Z,25.20
2019-04-26T09:46:11.737Z,25.20
2019-04-26T09:47:39.577Z,25.20
2019-04-26T09:48:51.374Z,25.20
2019-04-26T09:50:15.426Z,25.20
2019-04-26T09:51:16.790Z,25.30
2019-04-26T09:52:23.470Z,25.30
2019-04-26T09:53:26.126Z,25.30
2019-04-26T09:54:28.882Z,25.30
2019-04-26T09:55:35.469Z,25.40
2019-04-26T09:56:36.268Z,25.40
2019-04-26T09:57:39.237Z,25.40
2019-04-26T09:58:42.013Z,25.40
2019-04-26T09:59:44.655Z,25.40
2019-04-26T10:00:48.641Z,25.50
2019-04-26T10:01:55.407Z,25.50
2019-04-26T10:02:56.553Z,25.50
2019-04-26T10:03:59.185Z,25.50
2019-04-26T10:05:01.853Z,25.60
2019-04-26T10:06:04.729Z,25.60
2019-04-26T10:07:07.506Z,25.60
2019-04-26T10:08:12.802Z,25.60
2019-04-26T10:09:21.258Z,25.60
2019-04-26T10:10:23.946Z,25.60
2019-04-26T10:11:31.047Z,25.70
2019-04-26T10:12:48.668Z,25.60
2019-04-26T10:13:56.833Z,25.70
2019-04-26T10:15:22.466Z,25.70
2019-04-26T10:16:51.922Z,25.70
2019-04-26T10:17:54.607Z,25.80
2019-04-26T10:19:03.696Z,25.70
2019-04-26T10:20:06.735Z,25.80
2019-04-26T10:21:09.422Z,25.80
2019-04-26T10:22:12.065Z,25.90
2019-04-26T10:23:14.757Z,25.90
2019-04-26T10:24:17.800Z,25.90
2019-04-26T10:25:20.708Z,26.00
2019-04-26T10:26:28.220Z,26.00
2019-04-26T10:27:28.238Z,26.10
2019-04-26T10:28:30.973Z,26.10
2019-04-26T10:29:33.621Z,26.10
2019-04-26T10:30:38.330Z,26.10
2019-04-26T10:31:41.326Z,26.20
2019-04-26T10:32:44.145Z,26.20
2019-04-26T10:33:47.065Z,26.20
2019-04-26T10:34:49.755Z,26.30
2019-04-26T10:35:56.253Z,26.30
2019-04-26T10:36:57.332Z,26.30
2019-04-26T10:38:01.784Z,26.30
2019-04-26T10:39:07.424Z,26.40
2019-04-26T10:40:10.451Z,26.40
2019-04-26T10:41:13.355Z,26.40
2019-04-26T10:42:16.110Z,26.40
2019-04-26T10:43:19.100Z,26.40
2019-04-26T10:44:22.717Z,26.40
2019-04-26T10:45:25.742Z,26.50
2019-04-26T10:46:29.474Z,26.50
2019-04-26T10:47:34.280Z,26.50
2019-04-26T10:48:36.746Z,26.50
2019-04-26T10:49:41.066Z,26.50
2019-04-26T10:50:43.834Z,26.60
2019-04-26T10:51:46.509Z,26.60
2019-04-26T10:53:11.361Z,26.60
2019-04-26T10:54:18.142Z,26.60
2019-04-26T10:55:46.371Z,26.60
2019-04-26T10:57:04.429Z,26.60
2019-04-26T10:58:19.781Z,26.70
2019-04-26T10:59:45.548Z,26.70
2019-04-26T11:00:54.081Z,26.70
2019-04-26T11:01:56.791Z,26.70
2019-04-26T11:03:00.107Z,26.80
2019-04-26T11:04:04.021Z,26.80
2019-04-26T11:05:07.045Z,26.80
2019-04-26T11:06:09.692Z,26.80
2019-04-26T11:07:12.354Z,26.80
2019-04-26T11:08:15.056Z,26.90
2019-04-26T11:09:18.038Z,26.90
2019-04-26T11:10:20.720Z,26.90
2019-04-26T11:11:23.475Z,26.90
2019-04-26T11:12:26.149Z,26.90
2019-04-26T11:13:28.852Z,27.00
2019-04-26T11:14:31.512Z,27.00
2019-04-26T11:15:34.270Z,27.00
2019-04-26T11:16:37.173Z,27.10
2019-04-26T11:17:41.464Z,27.10
2019-04-26T11:18:44.182Z,27.20
2019-04-26T11:19:46.933Z,27.20
2019-04-26T11:20:49.577Z,27.30
2019-04-26T11:21:54.905Z,27.40
2019-04-26T11:22:56.684Z,27.40
2019-04-26T11:23:59.382Z,27.50
2019-04-26T11:25:02.057Z,27.50
2019-04-26T11:26:04.774Z,27.60
2019-04-26T11:27:09.653Z,27.60
2019-04-26T11:28:12.660Z,27.70
2019-04-26T11:29:15.376Z,27.70
2019-04-26T11:30:21.415Z,27.80
2019-04-26T11:31:27.656Z,27.80
2019-04-26T11:32:33.067Z,27.90
2019-04-26T11:33:44.435Z,27.90
2019-04-26T11:34:38.580Z,28.00
2019-04-26T11:35:41.448Z,28.00
2019-04-26T11:36:44.112Z,28.10
2019-04-26T11:37:50.690Z,28.10
2019-04-26T11:38:51.325Z,28.20
2019-04-26T11:39:54.083Z,28.30
2019-04-26T11:41:05.755Z,28.40
2019-04-26T11:42:01.383Z,28.50
2019-04-26T11:43:04.409Z,28.60
2019-04-26T11:44:07.099Z,28.70
2019-04-26T11:45:14.772Z,28.80
2019-04-26T11:46:15.578Z,29.00
2019-04-26T11:47:18.253Z,29.20
2019-04-26T11:48:20.941Z,29.30
2019-04-26T11:49:23.635Z,29.50
2019-04-26T11:50:26.459Z,29.60
2019-04-26T11:51:29.219Z,29.70
2019-04-26T11:52:32.221Z,29.90
2019-04-26T11:53:36.435Z,30.00
2019-04-26T11:54:39.149Z,30.10
2019-04-26T11:55:41.796Z,30.20
2019-04-26T11:56:44.446Z,30.30
2019-04-26T11:57:48.831Z,30.40
2019-04-26T11:58:52.416Z,30.50
2019-04-26T11:59:56.256Z,30.50
2019-04-26T12:01:01.284Z,30.50
2019-04-26T12:02:04.272Z,30.60
2019-04-26T12:03:06.910Z,30.60
2019-04-26T12:04:29.035Z,30.70
2019-04-26T12:05:44.211Z,30.80
2019-04-26T12:06:51.043Z,30.90
2019-04-26T12:07:59.229Z,30.90
2019-04-26T12:09:08.797Z,30.90
2019-04-26T12:10:12.071Z,30.90
2019-04-26T12:11:18.544Z,30.90
2019-04-26T12:12:19.270Z,30.90
2019-04-26T12:13:24.975Z,30.90
2019-04-26T12:14:29.471Z,30.90
2019-04-26T12:15:32.105Z,30.80
2019-04-26T12:16:47.031Z,30.70
2019-04-26T12:17:39.365Z,30.70
2019-04-26T12:18:44.090Z,30.60
2019-04-26T12:19:48.257Z,30.60
2019-04-26T12:20:50.969Z,30.60
2019-04-26T12:21:53.784Z,30.60
2019-04-26T12:22:56.433Z,30.60
2019-04-26T12:23:59.150Z,30.60
2019-04-26T12:25:03.444Z,30.50
2019-04-26T12:26:06.654Z,30.50
2019-04-26T12:27:10.312Z,30.40
2019-04-26T12:28:13.225Z,30.40
2019-04-26T12:29:15.864Z,30.30
2019-04-26T12:30:18.718Z,30.30
2019-04-26T12:31:21.377Z,30.20
2019-04-26T12:32:24.111Z,30.10
2019-04-26T12:33:26.779Z,30.00
2019-04-26T12:34:29.428Z,30.00
2019-04-26T12:35:32.066Z,29.90
2019-04-26T12:36:34.742Z,29.90
2019-04-26T12:37:37.428Z,29.80
2019-04-26T12:38:40.102Z,29.80
2019-04-26T12:39:42.845Z,29.80
2019-04-26T12:40:47.531Z,29.80
2019-04-26T12:41:50.217Z,29.80
2019-04-26T12:42:53.001Z,29.80
2019-04-26T12:43:59.597Z,29.80
2019-04-26T12:45:37.695Z,29.80
2019-04-26T12:46:46.324Z,29.90
2019-04-26T12:47:52.226Z,29.90
2019-04-26T12:48:54.945Z,29.90
2019-04-26T12:49:58.857Z,29.80
2019-04-26T12:51:02.067Z,29.90
2019-04-26T12:52:05.109Z,29.90
2019-04-26T12:53:07.757Z,29.90
2019-04-26T12:54:10.533Z,29.90
2019-04-26T12:55:13.814Z,30.00
2019-04-26T12:56:17.893Z,30.00
2019-04-26T12:57:20.540Z,30.00
2019-04-26T12:58:23.248Z,30.00
2019-04-26T12:59:26.592Z,30.00
2019-04-26T13:00:32.981Z,30.00
2019-04-26T13:01:33.924Z,30.10
2019-04-26T13:02:36.722Z,30.10
2019-04-26T13:03:39.364Z,30.10
2019-04-26T13:04:44.475Z,30.10
2019-04-26T13:05:49.242Z,30.10
2019-04-26T13:07:23.456Z,30.10
2019-04-26T13:08:18.144Z,30.10
2019-04-26T13:09:21.848Z,30.10
2019-04-26T13:10:40.933Z,30.00
2019-04-26T13:12:14.793Z,30.10
2019-04-26T13:13:36.896Z,30.10
2019-04-26T13:14:53.234Z,30.00
2019-04-26T13:16:21.522Z,30.00
2019-04-26T13:17:27.214Z,29.90
2019-04-26T13:18:30.101Z,29.90
2019-04-26T13:19:33.185Z,29.90
2019-04-26T13:20:35.849Z,29.90
2019-04-26T13:21:38.904Z,29.90
2019-04-26T13:22:46.167Z,30.00
2019-04-26T13:23:48.140Z,30.00
2019-04-26T13:24:50.490Z,30.00
2019-04-26T13:25:55.393Z,30.10
2019-04-26T13:27:00.657Z,30.10
2019-04-26T13:28:03.293Z,30.10
2019-04-26T13:29:05.969Z,30.20
2019-04-26T13:30:10.634Z,30.20
2019-04-26T13:31:13.445Z,30.20
2019-04-26T13:32:16.157Z,30.10
2019-04-26T13:33:18.816Z,30.20
2019-04-26T13:34:21.493Z,30.20
2019-04-26T13:35:24.179Z,30.20
2019-04-26T13:36:29.125Z,30.20
2019-04-26T13:37:32.200Z,30.20
2019-04-26T13:38:34.905Z,30.20
2019-04-26T13:39:37.591Z,30.20
2019-04-26T13:40:40.333Z,30.20
2019-04-26T13:41:43.000Z,30.20
2019-04-26T13:42:47.507Z,30.20
2019-04-26T13:43:50.111Z,30.20
2019-04-26T13:44:58.469Z,30.20
2019-04-26T13:46:16.430Z,30.20
2019-04-26T13:47:44.565Z,30.10
2019-04-26T13:49:14.178Z,30.10
2019-04-26T13:50:26.545Z,30.10
2019-04-26T13:51:30.184Z,30.00
2019-04-26T13:52:32.837Z,30.00
2019-04-26T13:53:35.471Z,30.00
2019-04-26T13:54:38.117Z,30.00
2019-04-26T13:55:41.041Z,29.90
2019-04-26T13:56:43.685Z,29.90
2019-04-26T13:57:46.382Z,29.90
2019-04-26T13:58:49.048Z,29.90
2019-04-26T13:59:51.902Z,29.90
2019-04-26T14:00:54.917Z,29.90
2019-04-26T14:01:57.629Z,29.90
2019-04-26T14:03:00.328Z,29.90
2019-04-26T14:04:06.911Z,29.90
2019-04-26T14:05:11.017Z,29.90
2019-04-26T14:06:12.061Z,29.90
2019-04-26T14:07:14.734Z,29.90
2019-04-26T14:08:17.719Z,30.00
2019-04-26T14:09:20.609Z,30.00
2019-04-26T14:10:23.586Z,30.00
2019-04-26T14:11:29.093Z,30.00
2019-04-26T14:12:30.761Z,30.10
2019-04-26T14:13:33.434Z,30.10
2019-04-26T14:14:36.105Z,30.10
2019-04-26T14:15:39.427Z,30.20
2019-04-26T14:16:43.745Z,30.20
2019-04-26T14:17:46.541Z,30.20
2019-04-26T14:18:49.237Z,30.20
2019-04-26T14:19:51.866Z,30.20
2019-04-26T14:20:58.539Z,30.20
2019-04-26T14:21:59.029Z,30.20
2019-04-26T14:23:25.461Z,30.20
2019-04-26T14:24:52.986Z,30.20
2019-04-26T14:26:12.697Z,30.20
2019-04-26T14:27:22.269Z,30.20
2019-04-26T14:28:25.344Z,30.20
2019-04-26T14:29:31.903Z,30.20
2019-04-26T14:30:32.702Z,30.20
2019-04-26T14:31:35.461Z,30.20
2019-04-26T14:32:38.184Z,30.20
2019-04-26T14:33:40.992Z,30.20
2019-04-26T14:34:45.209Z,30.10
2019-04-26T14:35:50.697Z,30.10
2019-04-26T14:37:05.535Z,30.10
2019-04-26T14:37:56.884Z,30.10
2019-04-26T14:39:05.739Z,30.00
2019-04-26T14:40:16.573Z,30.00
2019-04-26T14:41:09.120Z,30.00
2019-04-26T14:42:13.583Z,30.00
2019-04-26T14:43:18.286Z,29.90
2019-04-26T14:44:20.792Z,29.90
2019-04-26T14:45:24.227Z,29.90
2019-04-26T14:46:26.957Z,29.90
2019-04-26T14:47:30.426Z,30.00
2019-04-26T14:48:36.254Z,29.90
2019-04-26T14:49:41.413Z,29.90
2019-04-26T14:50:43.346Z,29.90
2019-04-26T14:51:47.022Z,29.80
2019-04-26T14:52:50.598Z,29.80
2019-04-26T14:53:53.339Z,29.80
2019-04-26T14:54:56.105Z,29.80
2019-04-26T14:55:58.741Z,29.80
2019-04-26T14:57:07.132Z,29.80
2019-04-26T14:58:06.184Z,29.80
2019-04-26T14:59:10.316Z,29.80
2019-04-26T15:00:16.768Z,29.80
2019-04-26T15:01:40.353Z,29.80
2019-04-26T15:02:56.113Z,29.80
2019-04-26T15:04:15.491Z,29.70
2019-04-26T15:05:33.378Z,29.70
2019-04-26T15:06:38.865Z,29.60
2019-04-26T15:07:49.439Z,29.60
2019-04-26T15:08:48.633Z,29.60
2019-04-26T15:09:50.603Z,29.60
2019-04-26T15:11:00.873Z,29.50
2019-04-26T15:12:01.246Z,29.50
2019-04-26T15:13:14.957Z,29.50
2019-04-26T15:14:16.054Z,29.50
2019-04-26T15:15:13.547Z,29.50
2019-04-26T15:16:16.319Z,29.50
2019-04-26T15:17:20.145Z,29.40
2019-04-26T15:18:23.420Z,29.40
2019-04-26T15:19:26.113Z,29.40
2019-04-26T15:20:28.883Z,29.40
2019-04-26T15:21:34.229Z,29.40
2019-04-26T15:22:36.112Z,29.40
2019-04-26T15:23:38.771Z,29.40
2019-04-26T15:24:42.173Z,29.50
2019-04-26T15:25:48.232Z,29.50
2019-04-26T15:26:49.432Z,29.50
2019-04-26T15:27:52.531Z,29.50
2019-04-26T15:28:55.244Z,29.50
2019-04-26T15:30:02.987Z,29.50
2019-04-26T15:31:02.488Z,29.40
2019-04-26T15:32:05.331Z,29.40
2019-04-26T15:33:08.988Z,29.40
2019-04-26T15:34:12.509Z,29.30
2019-04-26T15:35:17.602Z,29.30
2019-04-26T15:36:19.681Z,29.30
2019-04-26T15:37:25.014Z,29.30
2019-04-26T15:38:27.089Z,29.30
2019-04-26T15:39:50.211Z,29.30
2019-04-26T15:41:17.086Z,29.30
2019-04-26T15:42:37.489Z,29.30
2019-04-26T15:43:46.788Z,29.30
2019-04-26T15:45:01.919Z,29.30
2019-04-26T15:46:13.406Z,29.30
2019-04-26T15:47:38.517Z,29.20